Time;durP1;ratioP1;P1;durP2;ratioP2;P2;SDS_P1;SDS_P2;PMS_P1;PMS_P2;Temp;Humidity;BMP_temperature;BMP_pressure;BME280_temperature;BME280_humidity;BME280_pressure;Samples;Min_cycle;Max_cycle;Signal;HPM_P1;HPM_P2
2021/04/07 00:00:32;;;;;;;2.47;2.15;;;;;;;21.21;46.18;99073.14;1831827;76;21183;-54
2021/04/07 00:03:01;;;;;;;4.03;2.30;;;;;;;21.22;46.22;99070.57;1830563;76;21160;-54
2021/04/07 00:05:37;;;;;;;4.10;2.30;;;;;;;21.25;46.20;99069.06;1824440;76;21194;-56
2021/04/07 00:08:05;;;;;;;3.83;2.27;;;;;;;21.25;46.14;99057.42;1821800;76;21260;-54
2021/04/07 00:10:36;;;;;;;3.50;2.12;;;;;;;21.24;46.13;99053.63;1823649;76;21166;-54
2021/04/07 00:13:02;;;;;;;;;;;;;;;21.21;46.11;99055.16;1822952;76;21224;-54
2021/04/07 00:15:29;;;;;;;2.98;2.08;;;;;;;21.17;46.10;99054.29;1823939;76;20532;-52
2021/04/07 00:17:55;;;;;;;3.70;2.10;;;;;;;21.15;46.17;99044.16;1824238;76;21230;-57
2021/04/07 00:20:24;;;;;;;3.42;2.52;;;;;;;21.19;46.18;99042.27;1824162;76;21172;-54
2021/04/07 00:22:51;;;;;;;3.58;2.30;;;;;;;21.23;46.15;99039.56;1806559;77;21660;-54
2021/04/07 00:25:19;;;;;;;3.77;2.50;;;;;;;21.23;46.12;99041.75;1823405;76;21222;-54
2021/04/07 00:27:53;;;;;;;3.85;2.65;;;;;;;21.21;46.07;99041.34;1820686;78;21224;-55
2021/04/07 00:30:15;;;;;;;4.08;2.65;;;;;;;21.19;46.06;99035.35;1812189;76;22082;-55
2021/04/07 00:32:42;;;;;;;3.25;2.55;;;;;;;21.16;46.08;99037.47;1819038;77;21137;-54
2021/04/07 00:35:10;;;;;;;4.12;2.45;;;;;;;21.14;46.13;99033.45;1806668;77;21512;-56
2021/04/07 00:37:37;;;;;;;3.92;2.40;;;;;;;21.17;46.12;99031.36;1806153;77;21211;-54
2021/04/07 00:40:08;;;;;;;3.20;2.33;;;;;;;21.19;46.10;99035.93;1820325;78;21143;-55
2021/04/07 00:42:38;;;;;;;;;;;;;;;21.20;46.07;99030.05;1826336;77;21662;-53
2021/04/07 00:45:09;;;;;;;3.20;2.45;;;;;;;21.20;46.03;99034.77;1816796;78;20269;-56
2021/04/07 00:47:36;;;;;;;3.75;2.67;;;;;;;21.16;46.02;99036.67;1834381;76;21103;-56
2021/04/07 00:50:04;;;;;;;3.77;2.58;;;;;;;21.12;46.04;99031.62;1827188;76;21132;-56
2021/04/07 00:52:30;;;;;;;3.72;2.17;;;;;;;21.12;46.06;99031.06;1836149;76;21176;-53
2021/04/07 00:54:57;;;;;;;3.87;2.75;;;;;;;21.15;46.07;99040.59;1833704;76;21658;-55
2021/04/07 00:57:24;;;;;;;5.25;2.75;;;;;;;21.17;46.04;99037.70;1823931;77;21636;-55
2021/04/07 00:59:51;;;;;;;3.62;2.45;;;;;;;21.18;46.02;99031.55;1781468;79;21199;-55
2021/04/07 01:02:18;;;;;;;3.95;2.60;;;;;;;21.16;45.97;99040.81;1806989;77;21106;-55
2021/04/07 01:04:46;;;;;;;3.47;2.50;;;;;;;21.14;45.95;99052.80;1816990;77;21174;-55
2021/04/07 01:07:13;;;;;;;3.47;2.30;;;;;;;21.10;45.97;99054.66;1804218;77;21254;-55
2021/04/07 01:09:40;;;;;;;3.58;2.50;;;;;;;21.10;46.00;99061.58;1822763;76;21177;-55
2021/04/07 01:12:08;;;;;;;3.55;2.60;;;;;;;21.11;46.01;99063.99;1814333;77;21171;-55
2021/04/07 01:14:35;;;;;;;3.05;2.27;;;;;;;21.14;45.98;99069.40;1816611;77;21497;-55
2021/04/07 01:17:03;;;;;;;4.75;2.95;;;;;;;21.14;45.95;99074.93;1816625;78;21165;-54
2021/04/07 01:19:29;;;;;;;3.40;2.40;;;;;;;21.13;45.93;99081.65;1824025;77;21248;-55
2021/04/07 01:21:56;;;;;;;3.72;2.55;;;;;;;21.09;45.91;99087.66;1815864;78;21173;-55
2021/04/07 01:24:24;;;;;;;2.90;2.25;;;;;;;21.06;45.92;99100.80;1822924;78;21219;-54
2021/04/07 01:26:51;;;;;;;4.10;2.67;;;;;;;21.05;45.96;99103.37;1822158;77;21188;-55
2021/04/07 01:29:18;;;;;;;3.20;2.37;;;;;;;21.07;45.95;99108.74;1816910;76;21190;-54
2021/04/07 01:31:59;;;;;;;3.35;2.50;;;;;;;21.08;45.92;99115.88;1811583;77;21159;-54
2021/04/07 01:34:30;;;;;;;5.20;2.98;;;;;;;21.07;45.89;99123.14;1812938;77;21170;-54
2021/04/07 01:36:58;;;;;;;4.00;2.85;;;;;;;21.05;45.87;99136.55;1812780;77;21174;-55
2021/04/07 01:39:27;;;;;;;4.40;3.10;;;;;;;21.01;45.88;99150.27;1823460;77;21401;-54
2021/04/07 01:41:54;;;;;;;3.75;2.72;;;;;;;21.01;45.90;99160.52;1823402;76;21141;-54
2021/04/07 01:44:23;;;;;;;3.85;2.92;;;;;;;21.02;45.92;99157.98;1802076;78;22603;-55
2021/04/07 01:46:51;;;;;;;4.25;2.62;;;;;;;21.01;45.87;99157.75;1815268;76;21119;-55
2021/04/07 01:49:20;;;;;;;3.62;2.65;;;;;;;21.02;45.81;99163.51;1818518;76;21147;-55
2021/04/07 01:51:57;;;;;;;4.12;2.85;;;;;;;20.97;45.80;99152.95;1803788;77;21165;-55
2021/04/07 01:54:19;;;;;;;4.00;2.87;;;;;;;20.94;45.82;99150.11;1810211;77;21211;-54
2021/04/07 01:56:55;;;;;;;4.03;2.90;;;;;;;20.96;45.83;99153.33;1816336;76;22569;-55
2021/04/07 01:59:30;;;;;;;4.15;2.92;;;;;;;20.99;45.80;99148.45;1792620;78;21299;-56
2021/04/07 02:01:57;;;;;;;3.70;2.75;;;;;;;21.00;45.70;99157.55;1791809;78;21205;-55
2021/04/07 02:04:23;;;;;;;3.35;2.37;;;;;;;20.97;45.66;99145.23;1817093;77;21201;-55
2021/04/07 02:06:50;;;;;;;3.33;2.72;;;;;;;20.95;45.63;99134.55;1815015;77;21236;-55
2021/04/07 02:09:17;;;;;;;3.27;2.37;;;;;;;20.91;45.62;99130.91;1812519;76;22161;-55
2021/04/07 02:11:45;;;;;;;3.87;2.60;;;;;;;20.90;45.61;99144.50;1816077;76;21159;-55
2021/04/07 02:14:12;;;;;;;3.70;2.55;;;;;;;20.92;45.62;99146.31;1802120;77;21234;-55
2021/04/07 02:16:39;;;;;;;3.37;2.20;;;;;;;20.95;45.57;99133.17;1818686;76;21241;-55
2021/04/07 02:19:09;;;;;;;4.83;2.45;;;;;;;20.97;45.49;99134.17;1821350;77;21033;-55
2021/04/07 02:21:37;;;;;;;4.77;2.93;;;;;;;20.95;45.47;99135.13;1816876;76;21976;-56
2021/04/07 02:24:05;;;;;;;3.33;2.60;;;;;;;20.92;45.44;99138.02;1801590;79;21198;-56
2021/04/07 02:26:32;;;;;;;3.90;2.62;;;;;;;20.89;45.45;99150.38;1821312;78;21453;-55
2021/04/07 02:28:59;;;;;;;5.58;2.72;;;;;;;20.88;45.48;99153.72;1802424;77;21094;-56
2021/04/07 02:31:25;;;;;;;4.03;3.12;;;;;;;20.91;45.43;99152.22;1817727;77;21161;-55
2021/04/07 02:33:52;;;;;;;3.35;2.50;;;;;;;20.93;45.38;99152.64;1814210;78;21987;-56
2021/04/07 02:36:18;;;;;;;4.75;2.58;;;;;;;20.94;45.35;99153.68;1803904;77;21578;-55
2021/04/07 02:38:45;;;;;;;3.65;2.67;;;;;;;20.93;45.29;99150.69;1804101;77;21139;-55
2021/04/07 02:41:11;;;;;;;3.45;2.55;;;;;;;20.90;45.26;99148.65;1815115;76;21039;-55
2021/04/07 02:43:38;;;;;;;3.87;2.67;;;;;;;20.87;45.27;99143.05;1820077;77;21165;-55
2021/04/07 02:46:04;;;;;;;3.42;2.45;;;;;;;20.85;45.29;99136.48;1816547;76;22313;-55
2021/04/07 02:48:31;;;;;;;3.25;2.37;;;;;;;20.87;45.33;99133.37;1811107;77;21173;-55
2021/04/07 02:50:58;;;;;;;3.67;2.40;;;;;;;20.90;45.29;99150.03;1815358;77;21177;-55
2021/04/07 02:53:24;;;;;;;3.90;2.58;;;;;;;20.92;45.24;99148.27;1802916;77;21158;-56
2021/04/07 02:55:50;;;;;;;3.15;2.30;;;;;;;20.91;45.21;99148.08;1814679;78;21129;-55
2021/04/07 02:58:17;;;;;;;3.22;2.30;;;;;;;20.88;45.19;99148.77;1806504;77;21252;-55
2021/04/07 03:00:43;;;;;;;3.05;2.40;;;;;;;20.84;45.20;99160.32;1801666;77;21210;-55
2021/04/07 03:03:10;;;;;;;3.90;2.17;;;;;;;20.81;45.24;99153.56;1802975;78;21145;-55
2021/04/07 03:05:36;;;;;;;3.37;2.50;;;;;;;20.83;45.27;99169.80;1802645;77;21182;-56
2021/04/07 03:08:03;;;;;;;3.25;2.42;;;;;;;20.84;45.27;99179.67;1803832;77;21126;-56
2021/04/07 03:10:30;;;;;;;3.02;2.22;;;;;;;20.87;45.29;99178.40;1808025;77;21381;-55
2021/04/07 03:12:57;;;;;;;2.45;1.92;;;;;;;20.89;45.33;99184.36;1801688;77;21171;-54
2021/04/07 03:15:23;;;;;;;2.65;2.10;;;;;;;20.92;45.33;99183.63;1818418;77;21211;-55
2021/04/07 03:17:50;;;;;;;3.58;2.08;;;;;;;20.95;45.36;99195.95;1813242;77;21516;-55
2021/04/07 03:20:17;;;;;;;2.90;2.10;;;;;;;21.02;45.37;99200.84;1808948;77;21149;-55
2021/04/07 03:22:44;;;;;;;2.52;1.95;;;;;;;21.08;45.32;99202.98;1819620;77;23493;-56
2021/04/07 03:25:12;;;;;;;3.33;1.98;;;;;;;21.16;45.28;99209.52;1803586;77;21195;-55
2021/04/07 03:27:38;;;;;;;3.00;2.08;;;;;;;21.19;45.26;99217.89;1802318;77;21390;-55
2021/04/07 03:30:06;;;;;;;3.80;2.22;;;;;;;21.21;45.21;99214.77;1828557;76;21565;-56
2021/04/07 03:32:33;;;;;;;2.58;1.77;;;;;;;21.21;45.18;99222.49;1826847;76;21501;-56
2021/04/07 03:35:00;;;;;;;2.98;2.30;;;;;;;21.25;45.22;99234.44;1825202;76;21039;-55
2021/04/07 03:37:26;;;;;;;3.67;2.40;;;;;;;21.31;45.22;99238.52;1832181;76;21170;-56
2021/04/07 03:39:53;;;;;;;2.50;1.82;;;;;;;21.37;45.17;99242.62;1829702;76;21139;-56
2021/04/07 03:42:19;;;;;;;2.35;1.87;;;;;;;21.41;45.15;99237.97;1833059;76;21248;-56
2021/04/07 03:44:46;;;;;;;3.12;2.15;;;;;;;21.43;45.08;99244.51;1828045;76;21929;-55
2021/04/07 03:47:12;;;;;;;3.47;2.20;;;;;;;21.41;45.06;99257.34;1831338;76;21320;-54
2021/04/07 03:49:39;;;;;;;3.37;2.08;;;;;;;21.40;45.05;99242.47;1834186;76;21170;-55
2021/04/07 03:52:05;;;;;;;2.37;2.10;;;;;;;21.43;45.08;99234.83;1828956;76;21206;-55
2021/04/07 03:54:32;;;;;;;3.17;2.00;;;;;;;21.49;45.08;99222.33;1827292;76;21169;-55
2021/04/07 03:56:59;;;;;;;2.30;1.82;;;;;;;21.51;45.01;99228.31;1791955;77;21569;-55
2021/04/07 03:59:26;;;;;;;3.37;1.95;;;;;;;21.51;44.97;99242.73;1829824;76;21588;-55
2021/04/07 04:01:52;;;;;;;5.12;2.25;;;;;;;21.49;44.96;99251.95;1829880;76;21221;-55
2021/04/07 04:04:18;;;;;;;3.05;2.05;;;;;;;21.46;44.98;99256.84;1826921;76;21169;-55
2021/04/07 04:06:52;;;;;;;2.75;1.92;;;;;;;21.43;45.01;99266.64;1829636;76;21145;-55
2021/04/07 04:09:18;;;;;;;2.70;2.12;;;;;;;21.43;45.05;99266.64;1800748;77;21169;-56
2021/04/07 04:11:45;;;;;;;3.00;2.00;;;;;;;21.46;45.05;99279.78;1806846;77;21890;-55
2021/04/07 04:14:11;;;;;;;2.70;2.08;;;;;;;21.47;45.02;99280.01;1827485;76;21021;-55
2021/04/07 04:16:38;;;;;;;3.10;2.08;;;;;;;21.48;44.97;99287.13;1826113;76;21305;-55
2021/04/07 04:19:04;;;;;;;2.67;1.92;;;;;;;21.47;44.97;99292.46;1827288;76;21145;-54
2021/04/07 04:21:30;;;;;;;3.40;2.40;;;;;;;21.45;44.96;99293.38;1827297;76;21126;-55
2021/04/07 04:23:57;;;;;;;3.47;1.90;;;;;;;21.41;44.99;99294.69;1825971;76;22078;-54
2021/04/07 04:26:23;;;;;;;3.00;2.08;;;;;;;21.39;45.00;99302.53;1806199;77;21438;-55
2021/04/07 04:28:50;;;;;;;2.12;1.72;;;;;;;21.40;45.01;99311.64;1805039;78;21237;-55
2021/04/07 04:31:16;;;;;;;3.08;2.22;;;;;;;21.39;44.98;99311.41;1814463;76;21116;-58
2021/04/07 04:33:43;;;;;;;3.22;2.00;;;;;;;21.37;44.96;99328.96;1819850;76;21159;-53
2021/04/07 04:36:10;;;;;;;2.92;1.95;;;;;;;21.34;44.98;99322.16;1821854;76;23581;-55
2021/04/07 04:38:36;;;;;;;3.05;2.05;;;;;;;21.35;45.00;99337.61;1833240;75;21143;-55
2021/04/07 04:41:03;;;;;;;3.27;1.90;;;;;;;21.41;45.02;99343.69;1827690;76;21168;-54
2021/04/07 04:43:29;;;;;;;5.28;1.82;;;;;;;21.46;44.98;99342.61;1829957;76;21184;-56
2021/04/07 04:45:56;;;;;;;3.83;1.90;;;;;;;21.47;44.99;99360.25;1825933;76;21105;-58
2021/04/07 04:48:22;;;;;;;3.45;2.52;;;;;;;21.47;44.98;99371.31;1820674;76;21189;-59
2021/04/07 04:50:49;;;;;;;4.60;2.20;;;;;;;21.46;45.03;99373.86;1832560;76;21576;-58
2021/04/07 04:53:16;;;;;;;7.22;1.90;;;;;;;21.43;45.09;99355.98;1826152;76;21497;-58
2021/04/07 04:55:42;;;;;;;2.47;1.85;;;;;;;21.46;45.14;99350.91;1821996;76;21196;-58
2021/04/07 04:58:09;;;;;;;6.58;2.62;;;;;;;21.50;45.19;99336.58;1827058;76;21196;-58
2021/04/07 05:00:35;;;;;;;2.65;1.95;;;;;;;21.54;45.20;99335.51;1805918;77;22217;-58
2021/04/07 05:03:01;;;;;;;3.30;1.95;;;;;;;21.57;45.20;99347.81;1822151;76;21570;-59
2021/04/07 05:05:28;;;;;;;11.28;2.47;;;;;;;21.57;45.25;99361.08;1822017;76;21093;-59
2021/04/07 05:07:55;;;;;;;3.75;1.75;;;;;;;21.58;45.26;99384.02;1823401;76;21196;-58
2021/04/07 05:10:22;;;;;;;7.33;2.80;;;;;;;21.55;45.31;99385.55;1822561;76;21585;-61
2021/04/07 05:12:49;;;;;;;3.77;2.08;;;;;;;21.54;45.37;99377.59;1801873;77;21203;-59
2021/04/07 05:15:16;;;;;;;3.08;1.82;;;;;;;21.55;45.48;99353.72;1821012;76;21626;-58
2021/04/07 05:17:42;;;;;;;2.15;1.70;;;;;;;21.57;45.51;99355.54;1819255;76;21137;-57
2021/04/07 05:20:11;;;;;;;4.70;2.20;;;;;;;21.58;45.54;99365.45;1803441;77;22011;-58
2021/04/07 05:22:38;;;;;;;3.27;2.02;;;;;;;21.57;45.55;99358.30;1832235;76;21582;-58
2021/04/07 05:25:06;;;;;;;3.60;1.95;;;;;;;21.57;45.60;99364.41;1825172;76;21394;-57
2021/04/07 05:27:32;;;;;;;3.50;2.05;;;;;;;21.54;45.68;99382.55;1807043;76;21019;-57
2021/04/07 05:29:59;;;;;;;4.10;1.85;;;;;;;21.53;45.74;99382.33;1850208;75;21508;-57
2021/04/07 05:32:25;;;;;;;3.10;1.92;;;;;;;21.56;45.77;99389.90;1848997;75;21124;-57
2021/04/07 05:34:52;;;;;;;2.72;1.70;;;;;;;21.59;45.81;99406.39;1846655;75;21165;-56
2021/04/07 05:37:18;;;;;;;3.30;2.22;;;;;;;21.57;45.81;99410.89;1848375;75;22086;-57
2021/04/07 05:39:45;;;;;;;2.17;1.70;;;;;;;21.57;45.83;99421.15;1845505;75;21557;-58
2021/04/07 05:42:12;;;;;;;4.15;2.30;;;;;;;21.54;45.87;99428.22;1843929;75;21574;-58
2021/04/07 05:44:38;;;;;;;2.10;1.60;;;;;;;21.53;45.92;99422.45;1848677;75;21157;-58
2021/04/07 05:47:05;;;;;;;4.40;2.10;;;;;;;21.53;45.99;99401.70;1846349;75;21125;-58
2021/04/07 05:49:31;;;;;;;2.90;1.85;;;;;;;21.55;46.02;99391.66;1844228;75;21637;-58
2021/04/07 05:51:58;;;;;;;3.17;1.95;;;;;;;21.56;46.01;99401.55;1843724;75;21185;-57
2021/04/07 05:54:25;;;;;;;7.80;4.67;;;;;;;21.54;46.01;99395.01;1847233;75;21786;-58
2021/04/07 05:56:51;;;;;;;9.08;5.65;;;;;;;21.51;46.05;99435.86;1845518;75;21254;-58
2021/04/07 05:59:18;;;;;;;11.85;6.60;;;;;;;21.49;46.06;99447.84;1846126;75;21180;-59
2021/04/07 06:01:44;;;;;;;13.98;7.10;;;;;;;21.48;46.12;99444.04;1842333;75;20960;-59
2021/04/07 06:04:11;;;;;;;19.45;8.08;;;;;;;21.49;46.09;99445.08;1850942;75;21803;-59
2021/04/07 06:06:37;;;;;;;15.58;8.78;;;;;;;21.51;46.01;99445.54;1847562;75;21166;-59
2021/04/07 06:09:04;;;;;;;24.70;10.88;;;;;;;21.52;45.91;99460.96;1850104;75;21160;-58
2021/04/07 06:11:31;;;;;;;17.00;8.83;;;;;;;21.50;45.78;99468.83;1846890;75;21173;-59
2021/04/07 06:13:58;;;;;;;21.48;9.08;;;;;;;21.48;45.61;99462.83;1852439;75;21271;-58
2021/04/07 06:16:24;;;;;;;18.25;8.80;;;;;;;21.46;45.55;99474.05;1850799;75;21189;-58
2021/04/07 06:18:53;;;;;;;20.55;8.90;;;;;;;21.45;45.54;99462.75;1839785;75;21192;-60
2021/04/07 06:21:19;;;;;;;17.82;9.00;;;;;;;21.46;45.54;99458.83;1846074;75;21127;-59
2021/04/07 06:23:45;;;;;;;18.65;8.13;;;;;;;21.48;45.46;99453.14;1845244;75;21157;-60
2021/04/07 06:26:12;;;;;;;17.67;8.18;;;;;;;21.49;45.37;99463.06;1842689;75;21232;-59
2021/04/07 06:28:38;;;;;;;14.07;7.85;;;;;;;21.49;45.31;99463.64;1841955;75;21524;-58
2021/04/07 06:31:04;;;;;;;18.23;8.33;;;;;;;21.45;45.28;99458.59;1852919;75;21118;-60
2021/04/07 06:33:34;;;;;;;15.48;7.65;;;;;;;21.41;45.28;99464.84;1855746;75;21178;-58
2021/04/07 06:36:06;;;;;;;13.45;7.17;;;;;;;21.39;45.30;99482.94;1834404;76;21141;-58
2021/04/07 06:38:34;;;;;;;13.70;6.97;;;;;;;21.39;45.35;99500.93;1836907;76;21178;-60
2021/04/07 06:41:02;;;;;;;11.88;6.30;;;;;;;21.41;45.35;99502.77;1837118;76;21182;-60
2021/04/07 06:43:30;;;;;;;11.48;6.70;;;;;;;21.42;45.29;99501.62;1841103;76;21146;-60
2021/04/07 06:45:58;;;;;;;11.97;6.12;;;;;;;21.39;45.29;99505.08;1835221;76;21196;-59
2021/04/07 06:48:24;;;;;;;10.35;5.58;;;;;;;21.37;45.27;99500.49;1838338;76;21125;-59
2021/04/07 06:50:53;;;;;;;9.60;5.45;;;;;;;21.34;45.29;99509.51;1840636;76;21199;-60
2021/04/07 06:53:24;;;;;;;11.05;5.53;;;;;;;21.34;45.32;99508.13;1821427;77;21179;-60
2021/04/07 06:55:51;;;;;;;10.58;5.80;;;;;;;21.36;45.31;99520.44;1851545;75;21173;-60
2021/04/07 06:58:17;;;;;;;9.85;5.17;;;;;;;21.37;45.26;99530.35;1822530;77;21196;-59
2021/04/07 07:00:44;;;;;;;10.48;5.50;;;;;;;21.36;45.24;99551.45;1819668;77;21173;-60
2021/04/07 07:03:16;;;;;;;10.43;5.28;;;;;;;21.35;45.20;99558.13;1828163;76;21175;-60
2021/04/07 07:05:45;;;;;;;8.58;4.83;;;;;;;21.33;45.17;99543.86;1843327;75;21155;-60
2021/04/07 07:08:16;;;;;;;7.45;4.60;;;;;;;21.28;45.16;99547.68;1842856;75;21246;-60
2021/04/07 07:10:50;;;;;;;8.15;4.30;;;;;;;21.28;45.17;99551.02;1824208;77;21661;-60
2021/04/07 07:13:23;;;;;;;7.42;4.30;;;;;;;21.32;45.20;99552.73;1850334;75;21218;-59
2021/04/07 07:15:51;;;;;;;8.40;4.25;;;;;;;21.35;45.19;99541.53;1840723;75;21629;-59
2021/04/07 07:18:27;;;;;;;7.62;3.87;;;;;;;21.36;45.18;99539.80;1846298;75;21152;-59
2021/04/07 07:20:55;;;;;;;8.25;3.83;;;;;;;21.37;45.13;99541.42;1855851;75;21626;-61
2021/04/07 07:23:25;;;;;;;6.17;3.45;;;;;;;21.37;45.16;99559.98;1826192;77;21154;-59
2021/04/07 07:26:00;;;;;;;5.65;3.17;;;;;;;21.37;45.16;99586.27;1833562;76;21930;-59
2021/04/07 07:28:28;;;;;;;6.55;3.35;;;;;;;21.40;45.18;99600.19;1844770;77;21641;-59
2021/04/07 07:30:54;;;;;;;5.65;3.25;;;;;;;21.46;45.16;99593.03;1849809;75;21205;-59
2021/04/07 07:33:27;;;;;;;4.25;2.90;;;;;;;21.49;45.13;99590.94;1815481;77;21256;-60
2021/04/07 07:35:59;;;;;;;5.40;3.10;;;;;;;21.50;45.09;99599.47;1841615;77;21243;-59
2021/04/07 07:38:26;;;;;;;4.37;2.30;;;;;;;21.50;45.07;99616.88;1839423;75;21574;-60
2021/04/07 07:41:05;;;;;;;5.50;2.92;;;;;;;21.49;45.08;99618.61;1845938;75;22191;-59
2021/04/07 07:43:34;;;;;;;5.90;2.80;;;;;;;21.53;45.10;99620.32;1841762;77;21157;-60
2021/04/07 07:46:11;;;;;;;3.55;2.17;;;;;;;21.60;45.08;99628.03;1825853;77;21522;-59
2021/04/07 07:48:39;;;;;;;5.78;2.67;;;;;;;21.65;45.02;99642.41;1823365;77;21178;-60
2021/04/07 07:51:21;;;;;;;5.80;2.75;;;;;;;21.68;44.94;99640.91;1826411;77;21157;-60
2021/04/07 07:53:50;;;;;;;4.80;2.60;;;;;;;21.67;44.90;99649.80;1826366;77;22165;-59
2021/04/07 07:56:21;;;;;;;4.33;2.50;;;;;;;21.62;44.89;99636.20;1824765;77;21195;-59
2021/04/07 07:58:50;;;;;;;4.72;2.67;;;;;;;21.62;44.90;99620.17;1826826;77;21146;-59
2021/04/07 08:01:19;;;;;;;4.28;2.50;;;;;;;21.65;44.93;99594.55;1815812;77;21605;-60
2021/04/07 08:03:47;;;;;;;3.60;2.30;;;;;;;21.72;44.95;99603.06;1827557;75;21534;-60
2021/04/07 08:06:15;;;;;;;4.55;2.42;;;;;;;21.78;44.86;99634.28;1825866;75;22588;-61
2021/04/07 08:08:43;;;;;;;3.55;2.02;;;;;;;21.79;44.80;99642.81;1831281;76;21504;-59
2021/04/07 08:11:10;;;;;;;3.62;2.22;;;;;;;21.78;44.77;99662.54;1825321;76;21554;-59
2021/04/07 08:13:44;;;;;;;4.67;2.60;;;;;;;21.76;44.76;99667.06;1833244;76;21182;-60
2021/04/07 08:16:14;;;;;;;4.15;2.42;;;;;;;21.73;44.78;99660.83;1825666;76;21137;-60
2021/04/07 08:18:41;;;;;;;3.17;1.75;;;;;;;21.75;44.83;99656.33;1832536;76;21621;-59
2021/04/07 08:21:07;;;;;;;3.20;2.10;;;;;;;21.80;44.85;99636.70;1835765;76;21202;-59
2021/04/07 08:23:34;;;;;;;2.67;1.42;;;;;;;21.87;44.81;99625.81;1796923;76;21167;-60
2021/04/07 08:26:01;;;;;;;5.25;2.47;;;;;;;21.93;44.72;99626.40;1832029;75;21138;-59
2021/04/07 08:28:28;;;;;;;2.50;1.72;;;;;;;21.95;44.68;99643.45;1830203;75;21194;-59
2021/04/07 08:30:55;;;;;;;3.27;1.72;;;;;;;21.97;44.62;99666.07;1801337;77;22100;-59
2021/04/07 08:33:22;;;;;;;2.98;1.80;;;;;;;21.94;44.62;99688.33;1822816;76;21206;-58
2021/04/07 08:35:52;;;;;;;3.33;1.95;;;;;;;21.93;44.60;99675.67;1825333;76;21246;-59
2021/04/07 08:38:32;;;;;;;2.60;1.65;;;;;;;21.94;44.64;99677.25;1826350;76;21613;-59
2021/04/07 08:41:13;;;;;;;3.00;1.80;;;;;;;21.98;44.66;99677.38;1825456;76;21194;-60
2021/04/07 08:43:40;;;;;;;3.27;2.00;;;;;;;22.00;44.61;99680.58;1827731;76;21212;-58
2021/04/07 08:46:19;;;;;;;2.87;1.35;;;;;;;21.99;44.56;99689.47;1826740;76;21737;-59
2021/04/07 08:48:45;;;;;;;5.33;1.92;;;;;;;21.97;44.55;99699.30;1824838;76;21217;-59
2021/04/07 08:51:15;;;;;;;3.85;1.77;;;;;;;21.92;44.56;99707.83;1823905;76;21104;-59
2021/04/07 08:53:48;;;;;;;3.40;1.42;;;;;;;21.88;44.57;99708.54;1826869;76;22366;-60
2021/04/07 08:56:31;;;;;;;3.27;1.57;;;;;;;21.88;44.61;99717.42;1829333;76;22112;-60
2021/04/07 08:59:00;;;;;;;2.72;1.57;;;;;;;21.90;44.60;99730.32;1823446;76;21234;-59
2021/04/07 09:01:33;;;;;;;3.98;1.80;;;;;;;21.90;44.57;99733.09;1825588;76;21224;-60
2021/04/07 09:04:15;;;;;;;3.10;1.90;;;;;;;21.88;44.52;99721.00;1829799;76;21470;-60
2021/04/07 09:07:00;;;;;;;2.52;1.62;;;;;;;21.83;44.54;99710.17;1825602;76;21116;-60
2021/04/07 09:09:36;;;;;;;2.50;1.40;;;;;;;21.80;44.54;99711.45;1829330;76;22631;-59
2021/04/07 09:12:03;;;;;;;2.37;1.40;;;;;;;21.78;44.61;99721.48;1824524;76;21552;-60
2021/04/07 09:14:30;;;;;;;3.08;1.35;;;;;;;21.80;44.63;99710.07;1793041;77;21058;-60
2021/04/07 09:17:03;;;;;;;1.90;1.27;;;;;;;21.81;44.58;99724.93;1823284;76;21571;-60
2021/04/07 09:19:31;;;;;;;2.35;1.35;;;;;;;21.82;44.57;99731.28;1827249;76;21238;-61
2021/04/07 09:22:07;;;;;;;2.92;1.45;;;;;;;21.79;44.53;99733.38;1833844;76;21268;-60
2021/04/07 09:24:44;;;;;;;2.27;1.27;;;;;;;21.77;44.53;99756.44;1829005;76;38720;-60
2021/04/07 09:27:24;;;;;;;2.05;1.20;;;;;;;21.73;44.53;99771.56;1827781;76;21174;-60
2021/04/07 09:29:52;;;;;;;2.35;1.40;;;;;;;21.74;44.54;99773.76;1826303;76;21205;-60
2021/04/07 09:32:19;;;;;;;1.40;0.98;;;;;;;21.76;44.54;99776.42;1824526;77;22600;-60
2021/04/07 09:34:46;;;;;;;1.75;1.10;;;;;;;21.77;44.50;99778.58;1826738;76;21113;-60
2021/04/07 09:37:14;;;;;;;1.50;0.90;;;;;;;21.76;44.46;99776.42;1837325;75;21167;-61
2021/04/07 09:39:40;;;;;;;2.15;1.07;;;;;;;21.74;44.43;99780.67;1826596;76;21840;-60
2021/04/07 09:42:09;;;;;;;2.20;1.00;;;;;;;21.70;44.41;99772.84;1837567;76;22874;-61
2021/04/07 09:44:35;;;;;;;1.92;1.37;;;;;;;21.67;44.38;99784.05;1841470;75;21553;-60
2021/04/07 09:47:03;;;;;;;1.40;1.00;;;;;;;21.65;44.44;99783.58;1839707;75;21187;-61
2021/04/07 09:49:32;;;;;;;1.82;1.10;;;;;;;21.68;44.43;99769.64;1822477;76;21232;-61
2021/04/07 09:51:58;;;;;;;2.02;1.05;;;;;;;21.69;44.41;99764.30;1826647;76;21177;-60
2021/04/07 09:54:31;;;;;;;1.80;1.20;;;;;;;21.68;44.36;99757.18;1828489;76;21732;-60
2021/04/07 09:57:10;;;;;;;2.20;1.02;;;;;;;21.65;44.40;99764.77;1826480;76;21270;-61
2021/04/07 09:59:43;;;;;;;2.08;1.17;;;;;;;21.61;44.39;99772.98;1825347;76;21208;-61
2021/04/07 10:02:16;;;;;;;1.72;1.10;;;;;;;21.57;44.43;99785.91;1834236;76;21208;-61
2021/04/07 10:04:44;;;;;;;2.10;1.20;;;;;;;21.57;44.46;99794.20;1823426;76;21172;-59
2021/04/07 10:07:22;;;;;;;2.37;1.40;;;;;;;21.58;44.50;99793.06;1810308;77;21163;-61
2021/04/07 10:09:53;;;;;;;2.00;1.00;;;;;;;21.60;44.44;99770.58;1829273;76;21183;-60
2021/04/07 10:12:29;;;;;;;2.15;1.30;;;;;;;21.59;44.45;99753.73;1830028;76;21204;-60
2021/04/07 10:14:59;;;;;;;1.82;1.15;;;;;;;21.56;44.46;99735.84;1837229;76;21151;-60
2021/04/07 10:17:32;;;;;;;1.80;1.17;;;;;;;21.55;44.46;99748.67;1807368;77;21610;-60
2021/04/07 10:20:11;;;;;;;1.57;1.12;;;;;;;21.52;44.51;99757.08;1822094;76;21511;-60
2021/04/07 10:22:42;;;;;;;2.12;1.42;;;;;;;21.55;44.54;99762.51;1829078;76;21173;-60
2021/04/07 10:25:15;;;;;;;1.70;1.10;;;;;;;21.58;44.50;99772.30;1823617;76;21616;-60
2021/04/07 10:27:50;;;;;;;2.42;1.30;;;;;;;21.59;44.47;99769.77;1831707;76;21601;-60
2021/04/07 10:30:18;;;;;;;2.12;1.30;;;;;;;21.58;44.44;99765.37;1817295;76;21184;-60
2021/04/07 10:32:47;;;;;;;2.55;1.37;;;;;;;21.55;44.43;99767.47;1822012;77;21201;-61
2021/04/07 10:35:25;;;;;;;1.20;1.10;;;;;;;21.52;44.42;99775.06;1816908;76;21216;-61
2021/04/07 10:37:59;;;;;;;1.80;1.20;;;;;;;21.51;44.43;99775.44;1803387;77;22163;-59
2021/04/07 10:40:32;;;;;;;1.75;1.20;;;;;;;21.53;44.45;99766.19;1789751;78;21624;-60
2021/04/07 10:43:09;;;;;;;1.80;1.20;;;;;;;21.53;44.42;99754.55;1811550;77;21514;-58
2021/04/07 10:45:37;;;;;;;1.95;1.30;;;;;;;21.52;44.42;99762.61;1809621;77;21237;-59
2021/04/07 10:48:15;;;;;;;1.92;1.20;;;;;;;21.50;44.43;99763.55;1787773;78;21154;-59
2021/04/07 10:50:42;;;;;;;1.35;1.05;;;;;;;21.48;44.42;99776.92;1767622;78;21604;-59
2021/04/07 10:53:10;;;;;;;1.67;1.25;;;;;;;21.46;44.48;99779.24;1814176;77;21189;-59
2021/04/07 10:55:37;;;;;;;1.95;1.20;;;;;;;21.47;44.48;99790.55;1814258;77;21233;-58
2021/04/07 10:58:04;;;;;;;2.95;1.20;;;;;;;21.48;44.46;99786.60;1810901;77;21604;-58
2021/04/07 11:00:34;;;;;;;1.27;1.00;;;;;;;21.47;44.44;99792.50;1816018;77;21157;-58
2021/04/07 11:03:01;;;;;;;1.43;1.07;;;;;;;21.48;44.44;99796.86;1801343;78;22324;-58
2021/04/07 11:05:41;;;;;;;1.77;1.02;;;;;;;21.46;44.43;99797.23;1812969;77;21207;-58
2021/04/07 11:08:10;;;;;;;1.22;0.90;;;;;;;21.47;44.43;99811.30;1819890;78;21203;-57
2021/04/07 11:10:47;;;;;;;1.52;1.10;;;;;;;21.46;44.44;99826.86;1822448;76;21199;-57
2021/04/07 11:13:17;;;;;;;1.50;1.20;;;;;;;21.47;44.42;99831.25;1821140;76;21209;-58
2021/04/07 11:15:44;;;;;;;1.67;1.17;;;;;;;21.46;44.41;99839.31;1802697;77;21254;-58
2021/04/07 11:18:11;;;;;;;1.12;0.93;;;;;;;21.43;44.38;99829.72;1813457;77;21276;-58
2021/04/07 11:20:42;;;;;;;1.50;1.05;;;;;;;21.39;44.39;99837.91;1803798;78;21148;-58
2021/04/07 11:23:10;;;;;;;1.50;1.02;;;;;;;21.36;44.41;99832.27;1807436;77;21625;-57
2021/04/07 11:25:36;;;;;;;1.27;1.00;;;;;;;21.33;44.45;99831.59;1811947;77;21219;-58
2021/04/07 11:28:04;;;;;;;1.45;1.10;;;;;;;21.32;44.44;99827.20;1810168;77;21185;-58
2021/04/07 11:30:33;;;;;;;1.95;1.02;;;;;;;21.30;44.41;99819.23;1804974;77;21219;-58
2021/04/07 11:33:01;;;;;;;1.12;0.80;;;;;;;21.28;44.41;99832.63;1828456;76;21485;-57
2021/04/07 11:35:34;;;;;;;1.77;1.05;;;;;;;21.26;44.44;99827.22;1816570;76;21770;-58
2021/04/07 11:38:00;;;;;;;1.12;0.90;;;;;;;21.23;44.45;99831.46;1816223;76;21200;-58
2021/04/07 11:43:10;;;;;;;1.57;1.17;;;;;;;21.22;44.46;99836.76;1814107;76;21301;-57